sensor_id;sensor_type;location;lat;lon;timestamp;P1;durP1;ratioP1;P2;durP2;ratioP2
35961;SDS011;22044;48.298;10.008;2022-10-16T00:00:27;13.33;;;8.73;;
35961;SDS011;22044;48.298;10.008;2022-10-16T00:03:13;38.07;;;19.40;;
35961;SDS011;22044;48.298;10.008;2022-10-16T00:05:59;56.90;;;35.00;;
35961;SDS011;22044;48.298;10.008;2022-10-16T00:08:46;35.77;;;20.50;;
35961;SDS011;22044;48.298;10.008;2022-10-16T00:11:33;7.00;;;3.70;;
35961;SDS011;22044;48.298;10.008;2022-10-16T00:14:21;7.53;;;2.43;;
35961;SDS011;22044;48.298;10.008;2022-10-16T00:17:06;4.13;;;2.10;;
35961;SDS011;22044;48.298;10.008;2022-10-16T00:19:52;7.00;;;4.13;;
35961;SDS011;22044;48.298;10.008;2022-10-16T00:22:37;6.37;;;2.67;;
35961;SDS011;22044;48.298;10.008;2022-10-16T00:25:25;2.97;;;2.20;;
35961;SDS011;22044;48.298;10.008;2022-10-16T00:28:10;6.10;;;2.30;;
35961;SDS011;22044;48.298;10.008;2022-10-16T00:30:56;6.87;;;3.13;;
35961;SDS011;22044;48.298;10.008;2022-10-16T00:33:42;2.83;;;2.17;;
35961;SDS011;22044;48.298;10.008;2022-10-16T00:36:28;4.23;;;2.50;;
35961;SDS011;22044;48.298;10.008;2022-10-16T00:39:14;4.57;;;2.00;;
35961;SDS011;22044;48.298;10.008;2022-10-16T00:42:01;4.03;;;2.33;;
35961;SDS011;22044;48.298;10.008;2022-10-16T00:44:47;2.50;;;2.30;;
35961;SDS011;22044;48.298;10.008;2022-10-16T00:47:36;7.40;;;2.63;;
35961;SDS011;22044;48.298;10.008;2022-10-16T00:50:26;2.50;;;2.10;;
35961;SDS011;22044;48.298;10.008;2022-10-16T00:53:14;2.23;;;2.03;;
35961;SDS011;22044;48.298;10.008;2022-10-16T00:56:01;11.43;;;6.90;;
35961;SDS011;22044;48.298;10.008;2022-10-16T00:58:49;31.60;;;14.63;;
35961;SDS011;22044;48.298;10.008;2022-10-16T01:01:35;21.07;;;11.63;;
35961;SDS011;22044;48.298;10.008;2022-10-16T01:04:20;31.17;;;16.37;;
35961;SDS011;22044;48.298;10.008;2022-10-16T01:07:09;34.93;;;18.03;;
35961;SDS011;22044;48.298;10.008;2022-10-16T01:10:05;32.10;;;15.93;;
35961;SDS011;22044;48.298;10.008;2022-10-16T01:12:57;22.67;;;12.57;;
35961;SDS011;22044;48.298;10.008;2022-10-16T01:15:47;19.77;;;10.80;;
35961;SDS011;22044;48.298;10.008;2022-10-16T01:18:37;10.77;;;4.97;;
35961;SDS011;22044;48.298;10.008;2022-10-16T01:21:26;6.03;;;2.70;;
35961;SDS011;22044;48.298;10.008;2022-10-16T01:24:17;7.37;;;3.70;;
35961;SDS011;22044;48.298;10.008;2022-10-16T01:27:13;8.37;;;4.43;;
35961;SDS011;22044;48.298;10.008;2022-10-16T01:30:04;8.87;;;4.83;;
35961;SDS011;22044;48.298;10.008;2022-10-16T01:32:56;14.80;;;7.17;;
35961;SDS011;22044;48.298;10.008;2022-10-16T01:35:46;8.87;;;2.40;;
35961;SDS011;22044;48.298;10.008;2022-10-16T01:38:37;4.20;;;2.20;;
35961;SDS011;22044;48.298;10.008;2022-10-16T01:41:26;5.90;;;2.53;;
35961;SDS011;22044;48.298;10.008;2022-10-16T01:44:18;6.23;;;2.73;;
35961;SDS011;22044;48.298;10.008;2022-10-16T01:47:07;3.00;;;2.40;;
35961;SDS011;22044;48.298;10.008;2022-10-16T01:49:56;3.03;;;2.50;;
35961;SDS011;22044;48.298;10.008;2022-10-16T01:52:44;3.27;;;2.57;;
35961;SDS011;22044;48.298;10.008;2022-10-16T01:55:32;4.50;;;3.13;;
35961;SDS011;22044;48.298;10.008;2022-10-16T01:58:21;4.10;;;2.60;;
35961;SDS011;22044;48.298;10.008;2022-10-16T02:01:11;4.13;;;2.73;;
35961;SDS011;22044;48.298;10.008;2022-10-16T02:04:01;2.57;;;2.37;;
35961;SDS011;22044;48.298;10.008;2022-10-16T02:06:52;6.47;;;2.63;;
35961;SDS011;22044;48.298;10.008;2022-10-16T02:09:38;7.77;;;2.60;;
35961;SDS011;22044;48.298;10.008;2022-10-16T02:12:26;4.77;;;2.30;;
35961;SDS011;22044;48.298;10.008;2022-10-16T02:15:15;6.93;;;2.07;;
35961;SDS011;22044;48.298;10.008;2022-10-16T02:18:02;2.70;;;2.00;;
35961;SDS011;22044;48.298;10.008;2022-10-16T02:20:51;5.30;;;2.30;;
35961;SDS011;22044;48.298;10.008;2022-10-16T02:23:42;3.50;;;2.03;;
35961;SDS011;22044;48.298;10.008;2022-10-16T02:26:35;7.47;;;2.33;;
35961;SDS011;22044;48.298;10.008;2022-10-16T02:29:26;4.00;;;2.10;;
35961;SDS011;22044;48.298;10.008;2022-10-16T02:32:12;3.10;;;2.00;;
35961;SDS011;22044;48.298;10.008;2022-10-16T02:35:06;4.27;;;2.17;;
35961;SDS011;22044;48.298;10.008;2022-10-16T02:37:53;5.17;;;2.10;;
35961;SDS011;22044;48.298;10.008;2022-10-16T02:40:40;3.30;;;2.50;;
35961;SDS011;22044;48.298;10.008;2022-10-16T02:43:26;4.30;;;2.73;;
35961;SDS011;22044;48.298;10.008;2022-10-16T02:46:14;4.73;;;2.47;;
35961;SDS011;22044;48.298;10.008;2022-10-16T02:49:01;4.13;;;1.90;;
35961;SDS011;22044;48.298;10.008;2022-10-16T02:51:48;4.50;;;1.97;;
35961;SDS011;22044;48.298;10.008;2022-10-16T02:54:33;6.50;;;2.50;;
35961;SDS011;22044;48.298;10.008;2022-10-16T02:57:19;7.07;;;2.50;;
35961;SDS011;22044;48.298;10.008;2022-10-16T03:00:05;3.43;;;2.13;;
35961;SDS011;22044;48.298;10.008;2022-10-16T03:02:51;5.27;;;2.10;;
35961;SDS011;22044;48.298;10.008;2022-10-16T03:05:37;8.73;;;2.27;;
35961;SDS011;22044;48.298;10.008;2022-10-16T03:08:24;6.10;;;2.50;;
35961;SDS011;22044;48.298;10.008;2022-10-16T03:11:09;4.07;;;2.10;;
35961;SDS011;22044;48.298;10.008;2022-10-16T03:13:55;7.00;;;2.00;;
35961;SDS011;22044;48.298;10.008;2022-10-16T03:16:41;6.67;;;2.37;;
35961;SDS011;22044;48.298;10.008;2022-10-16T03:19:26;4.53;;;2.20;;
35961;SDS011;22044;48.298;10.008;2022-10-16T03:22:12;5.43;;;2.13;;
35961;SDS011;22044;48.298;10.008;2022-10-16T03:24:59;4.77;;;2.10;;
35961;SDS011;22044;48.298;10.008;2022-10-16T03:27:47;5.20;;;2.23;;
35961;SDS011;22044;48.298;10.008;2022-10-16T03:30:32;13.77;;;2.53;;
35961;SDS011;22044;48.298;10.008;2022-10-16T03:33:18;5.10;;;2.67;;
35961;SDS011;22044;48.298;10.008;2022-10-16T03:36:03;5.97;;;2.40;;
35961;SDS011;22044;48.298;10.008;2022-10-16T03:38:49;4.37;;;2.20;;
35961;SDS011;22044;48.298;10.008;2022-10-16T03:41:36;2.90;;;2.10;;
35961;SDS011;22044;48.298;10.008;2022-10-16T03:44:22;3.23;;;2.20;;
35961;SDS011;22044;48.298;10.008;2022-10-16T03:47:07;4.73;;;2.03;;
35961;SDS011;22044;48.298;10.008;2022-10-16T03:49:53;7.53;;;2.20;;
35961;SDS011;22044;48.298;10.008;2022-10-16T03:52:38;5.67;;;2.80;;
35961;SDS011;22044;48.298;10.008;2022-10-16T03:55:26;5.07;;;2.30;;
35961;SDS011;22044;48.298;10.008;2022-10-16T03:58:13;5.10;;;2.27;;
35961;SDS011;22044;48.298;10.008;2022-10-16T04:00:59;6.77;;;2.73;;
35961;SDS011;22044;48.298;10.008;2022-10-16T04:03:44;4.87;;;2.60;;
35961;SDS011;22044;48.298;10.008;2022-10-16T04:06:30;3.10;;;2.17;;
35961;SDS011;22044;48.298;10.008;2022-10-16T04:09:15;3.30;;;2.30;;
35961;SDS011;22044;48.298;10.008;2022-10-16T04:12:01;4.43;;;2.60;;
35961;SDS011;22044;48.298;10.008;2022-10-16T04:14:48;4.13;;;2.30;;
35961;SDS011;22044;48.298;10.008;2022-10-16T04:17:34;7.37;;;2.50;;
35961;SDS011;22044;48.298;10.008;2022-10-16T04:20:19;10.07;;;2.97;;
35961;SDS011;22044;48.298;10.008;2022-10-16T04:23:05;7.57;;;2.57;;
35961;SDS011;22044;48.298;10.008;2022-10-16T04:25:50;9.33;;;2.10;;
35961;SDS011;22044;48.298;10.008;2022-10-16T04:28:36;14.10;;;2.63;;
35961;SDS011;22044;48.298;10.008;2022-10-16T04:31:23;5.20;;;2.20;;
35961;SDS011;22044;48.298;10.008;2022-10-16T04:34:08;6.83;;;2.30;;
35961;SDS011;22044;48.298;10.008;2022-10-16T04:36:54;5.47;;;2.43;;
35961;SDS011;22044;48.298;10.008;2022-10-16T04:39:40;4.03;;;2.10;;
35961;SDS011;22044;48.298;10.008;2022-10-16T04:42:25;4.80;;;2.10;;
35961;SDS011;22044;48.298;10.008;2022-10-16T04:45:11;5.50;;;2.27;;
35961;SDS011;22044;48.298;10.008;2022-10-16T04:47:58;7.20;;;2.20;;
35961;SDS011;22044;48.298;10.008;2022-10-16T04:50:44;8.77;;;2.53;;
35961;SDS011;22044;48.298;10.008;2022-10-16T04:53:30;6.00;;;2.80;;
35961;SDS011;22044;48.298;10.008;2022-10-16T04:56:15;3.90;;;2.70;;
35961;SDS011;22044;48.298;10.008;2022-10-16T04:59:01;7.03;;;2.70;;
35961;SDS011;22044;48.298;10.008;2022-10-16T05:01:50;5.97;;;3.10;;
35961;SDS011;22044;48.298;10.008;2022-10-16T05:04:36;6.47;;;2.70;;
35961;SDS011;22044;48.298;10.008;2022-10-16T05:07:22;5.37;;;3.03;;
35961;SDS011;22044;48.298;10.008;2022-10-16T05:10:08;4.90;;;2.70;;
35961;SDS011;22044;48.298;10.008;2022-10-16T05:12:53;5.40;;;3.07;;
35961;SDS011;22044;48.298;10.008;2022-10-16T05:15:39;5.17;;;2.70;;
35961;SDS011;22044;48.298;10.008;2022-10-16T05:18:24;5.77;;;2.80;;
35961;SDS011;22044;48.298;10.008;2022-10-16T05:21:11;6.40;;;2.70;;
35961;SDS011;22044;48.298;10.008;2022-10-16T05:23:57;6.83;;;2.90;;
35961;SDS011;22044;48.298;10.008;2022-10-16T05:26:42;5.73;;;3.00;;
35961;SDS011;22044;48.298;10.008;2022-10-16T05:29:28;4.17;;;2.83;;
35961;SDS011;22044;48.298;10.008;2022-10-16T05:32:14;7.67;;;2.80;;
35961;SDS011;22044;48.298;10.008;2022-10-16T05:35:00;5.73;;;3.63;;
35961;SDS011;22044;48.298;10.008;2022-10-16T05:37:47;5.07;;;2.60;;
35961;SDS011;22044;48.298;10.008;2022-10-16T05:40:33;3.83;;;2.67;;
35961;SDS011;22044;48.298;10.008;2022-10-16T05:43:19;7.80;;;3.33;;
35961;SDS011;22044;48.298;10.008;2022-10-16T05:46:05;3.77;;;2.70;;
35961;SDS011;22044;48.298;10.008;2022-10-16T05:48:51;5.17;;;3.23;;
35961;SDS011;22044;48.298;10.008;2022-10-16T05:51:37;4.57;;;2.80;;
35961;SDS011;22044;48.298;10.008;2022-10-16T05:54:24;7.27;;;2.70;;
35961;SDS011;22044;48.298;10.008;2022-10-16T05:57:10;4.87;;;2.53;;
35961;SDS011;22044;48.298;10.008;2022-10-16T05:59:58;4.50;;;2.80;;
35961;SDS011;22044;48.298;10.008;2022-10-16T06:02:44;5.63;;;2.90;;
35961;SDS011;22044;48.298;10.008;2022-10-16T06:05:29;2.53;;;2.33;;
35961;SDS011;22044;48.298;10.008;2022-10-16T06:08:15;7.13;;;2.73;;
35961;SDS011;22044;48.298;10.008;2022-10-16T06:11:03;3.40;;;2.73;;
35961;SDS011;22044;48.298;10.008;2022-10-16T06:13:50;5.57;;;2.87;;
35961;SDS011;22044;48.298;10.008;2022-10-16T06:16:36;4.93;;;2.70;;
35961;SDS011;22044;48.298;10.008;2022-10-16T06:19:22;6.50;;;2.90;;
35961;SDS011;22044;48.298;10.008;2022-10-16T06:22:08;4.43;;;3.50;;
35961;SDS011;22044;48.298;10.008;2022-10-16T06:24:53;3.33;;;3.03;;
35961;SDS011;22044;48.298;10.008;2022-10-16T06:27:41;6.73;;;2.73;;
35961;SDS011;22044;48.298;10.008;2022-10-16T06:30:26;3.57;;;3.20;;
35961;SDS011;22044;48.298;10.008;2022-10-16T06:33:12;5.60;;;2.60;;
35961;SDS011;22044;48.298;10.008;2022-10-16T06:36:01;5.00;;;2.80;;
35961;SDS011;22044;48.298;10.008;2022-10-16T06:38:47;4.10;;;2.40;;
35961;SDS011;22044;48.298;10.008;2022-10-16T06:41:33;5.77;;;2.80;;
35961;SDS011;22044;48.298;10.008;2022-10-16T06:44:33;4.63;;;2.37;;
35961;SDS011;22044;48.298;10.008;2022-10-16T06:47:19;5.37;;;2.30;;
35961;SDS011;22044;48.298;10.008;2022-10-16T06:50:05;4.67;;;3.17;;
35961;SDS011;22044;48.298;10.008;2022-10-16T06:52:51;6.37;;;2.40;;
35961;SDS011;22044;48.298;10.008;2022-10-16T06:55:37;7.70;;;2.70;;
35961;SDS011;22044;48.298;10.008;2022-10-16T06:58:23;5.07;;;2.70;;
35961;SDS011;22044;48.298;10.008;2022-10-16T07:01:10;4.40;;;2.30;;
35961;SDS011;22044;48.298;10.008;2022-10-16T07:03:56;3.30;;;2.73;;
35961;SDS011;22044;48.298;10.008;2022-10-16T07:06:41;2.83;;;2.23;;
35961;SDS011;22044;48.298;10.008;2022-10-16T07:09:27;7.97;;;2.60;;
35961;SDS011;22044;48.298;10.008;2022-10-16T07:12:13;5.57;;;2.77;;
35961;SDS011;22044;48.298;10.008;2022-10-16T07:14:58;4.80;;;2.53;;
35961;SDS011;22044;48.298;10.008;2022-10-16T07:17:45;9.40;;;2.73;;
35961;SDS011;22044;48.298;10.008;2022-10-16T07:20:31;3.93;;;2.40;;
35961;SDS011;22044;48.298;10.008;2022-10-16T07:23:17;4.90;;;2.70;;
35961;SDS011;22044;48.298;10.008;2022-10-16T07:26:03;2.60;;;2.40;;
35961;SDS011;22044;48.298;10.008;2022-10-16T07:28:49;6.03;;;3.07;;
35961;SDS011;22044;48.298;10.008;2022-10-16T07:31:35;5.20;;;2.60;;
35961;SDS011;22044;48.298;10.008;2022-10-16T07:34:23;3.67;;;2.97;;
35961;SDS011;22044;48.298;10.008;2022-10-16T07:37:10;4.43;;;2.97;;
35961;SDS011;22044;48.298;10.008;2022-10-16T07:39:56;2.57;;;2.17;;
35961;SDS011;22044;48.298;10.008;2022-10-16T07:42:41;4.70;;;2.40;;
35961;SDS011;22044;48.298;10.008;2022-10-16T07:45:27;3.00;;;2.70;;
35961;SDS011;22044;48.298;10.008;2022-10-16T07:48:13;3.63;;;2.60;;
35961;SDS011;22044;48.298;10.008;2022-10-16T07:51:00;3.17;;;2.53;;
35961;SDS011;22044;48.298;10.008;2022-10-16T07:53:46;5.33;;;2.63;;
35961;SDS011;22044;48.298;10.008;2022-10-16T07:56:36;6.03;;;2.30;;
35961;SDS011;22044;48.298;10.008;2022-10-16T07:59:21;4.07;;;2.43;;
35961;SDS011;22044;48.298;10.008;2022-10-16T08:02:07;4.73;;;2.30;;
35961;SDS011;22044;48.298;10.008;2022-10-16T08:04:53;4.27;;;2.67;;
35961;SDS011;22044;48.298;10.008;2022-10-16T08:07:40;3.77;;;2.13;;
35961;SDS011;22044;48.298;10.008;2022-10-16T08:10:26;6.90;;;2.60;;
35961;SDS011;22044;48.298;10.008;2022-10-16T08:13:13;2.93;;;2.20;;
35961;SDS011;22044;48.298;10.008;2022-10-16T08:15:59;4.77;;;2.17;;
35961;SDS011;22044;48.298;10.008;2022-10-16T08:18:45;3.27;;;2.53;;
35961;SDS011;22044;48.298;10.008;2022-10-16T08:21:31;3.43;;;2.10;;
35961;SDS011;22044;48.298;10.008;2022-10-16T08:24:19;4.20;;;2.30;;
35961;SDS011;22044;48.298;10.008;2022-10-16T08:27:05;2.87;;;2.30;;
35961;SDS011;22044;48.298;10.008;2022-10-16T08:29:50;4.87;;;2.50;;
35961;SDS011;22044;48.298;10.008;2022-10-16T08:32:36;5.43;;;3.00;;
35961;SDS011;22044;48.298;10.008;2022-10-16T08:35:22;2.47;;;2.10;;
35961;SDS011;22044;48.298;10.008;2022-10-16T08:38:07;3.13;;;2.33;;
35961;SDS011;22044;48.298;10.008;2022-10-16T08:40:56;2.80;;;2.40;;
35961;SDS011;22044;48.298;10.008;2022-10-16T08:44:02;4.87;;;2.60;;
35961;SDS011;22044;48.298;10.008;2022-10-16T08:47:12;5.23;;;2.67;;
35961;SDS011;22044;48.298;10.008;2022-10-16T08:50:05;3.03;;;2.60;;
35961;SDS011;22044;48.298;10.008;2022-10-16T08:52:54;7.83;;;3.00;;
35961;SDS011;22044;48.298;10.008;2022-10-16T08:55:42;5.67;;;2.77;;
35961;SDS011;22044;48.298;10.008;2022-10-16T08:58:31;5.73;;;2.80;;
35961;SDS011;22044;48.298;10.008;2022-10-16T09:01:17;3.00;;;2.57;;
35961;SDS011;22044;48.298;10.008;2022-10-16T09:07:28;4.67;;;2.63;;
35961;SDS011;22044;48.298;10.008;2022-10-16T09:10:28;5.03;;;2.77;;
35961;SDS011;22044;48.298;10.008;2022-10-16T09:13:23;5.60;;;2.50;;
35961;SDS011;22044;48.298;10.008;2022-10-16T09:16:17;5.07;;;2.97;;
35961;SDS011;22044;48.298;10.008;2022-10-16T09:19:09;8.30;;;3.47;;
35961;SDS011;22044;48.298;10.008;2022-10-16T09:22:08;6.40;;;3.07;;
35961;SDS011;22044;48.298;10.008;2022-10-16T09:24:58;3.73;;;2.70;;
35961;SDS011;22044;48.298;10.008;2022-10-16T09:27:45;5.90;;;2.80;;
35961;SDS011;22044;48.298;10.008;2022-10-16T09:30:33;5.33;;;3.10;;
35961;SDS011;22044;48.298;10.008;2022-10-16T09:33:20;3.37;;;2.50;;
35961;SDS011;22044;48.298;10.008;2022-10-16T09:36:08;4.77;;;2.53;;
35961;SDS011;22044;48.298;10.008;2022-10-16T09:39:04;2.97;;;2.60;;
35961;SDS011;22044;48.298;10.008;2022-10-16T09:41:51;7.33;;;2.77;;
35961;SDS011;22044;48.298;10.008;2022-10-16T09:44:36;3.80;;;2.20;;
35961;SDS011;22044;48.298;10.008;2022-10-16T09:47:23;2.70;;;2.50;;
35961;SDS011;22044;48.298;10.008;2022-10-16T09:50:20;4.67;;;2.83;;
35961;SDS011;22044;48.298;10.008;2022-10-16T09:53:10;3.23;;;2.77;;
35961;SDS011;22044;48.298;10.008;2022-10-16T09:55:58;6.63;;;3.10;;
35961;SDS011;22044;48.298;10.008;2022-10-16T09:58:49;5.83;;;2.70;;
35961;SDS011;22044;48.298;10.008;2022-10-16T10:01:36;3.20;;;2.80;;
35961;SDS011;22044;48.298;10.008;2022-10-16T10:04:23;4.10;;;2.70;;
35961;SDS011;22044;48.298;10.008;2022-10-16T10:07:18;5.83;;;2.40;;
35961;SDS011;22044;48.298;10.008;2022-10-16T10:10:18;6.43;;;2.83;;
35961;SDS011;22044;48.298;10.008;2022-10-16T10:13:15;4.03;;;2.60;;
35961;SDS011;22044;48.298;10.008;2022-10-16T10:16:04;3.97;;;1.80;;
35961;SDS011;22044;48.298;10.008;2022-10-16T10:18:57;3.77;;;1.93;;
35961;SDS011;22044;48.298;10.008;2022-10-16T10:21:43;4.80;;;2.53;;
35961;SDS011;22044;48.298;10.008;2022-10-16T10:24:30;6.93;;;2.23;;
35961;SDS011;22044;48.298;10.008;2022-10-16T10:27:16;2.43;;;2.17;;
35961;SDS011;22044;48.298;10.008;2022-10-16T10:30:05;5.03;;;2.43;;
35961;SDS011;22044;48.298;10.008;2022-10-16T10:33:05;2.33;;;1.90;;
35961;SDS011;22044;48.298;10.008;2022-10-16T10:36:03;6.60;;;2.80;;
35961;SDS011;22044;48.298;10.008;2022-10-16T10:38:58;3.70;;;2.33;;
35961;SDS011;22044;48.298;10.008;2022-10-16T10:45:16;2.53;;;2.23;;
35961;SDS011;22044;48.298;10.008;2022-10-16T10:48:14;2.60;;;2.40;;
35961;SDS011;22044;48.298;10.008;2022-10-16T10:51:07;3.23;;;2.77;;
35961;SDS011;22044;48.298;10.008;2022-10-16T10:53:59;2.97;;;2.20;;
35961;SDS011;22044;48.298;10.008;2022-10-16T10:56:50;2.30;;;2.10;;
35961;SDS011;22044;48.298;10.008;2022-10-16T10:59:53;3.70;;;1.92;;
35961;SDS011;22044;48.298;10.008;2022-10-16T11:02:48;4.17;;;2.50;;
35961;SDS011;22044;48.298;10.008;2022-10-16T11:05:41;4.15;;;2.28;;
35961;SDS011;22044;48.298;10.008;2022-10-16T11:08:29;4.15;;;2.13;;
35961;SDS011;22044;48.298;10.008;2022-10-16T11:11:20;20.60;;;18.40;;
35961;SDS011;22044;48.298;10.008;2022-10-16T11:14:12;4.65;;;3.60;;
35961;SDS011;22044;48.298;10.008;2022-10-16T11:17:05;4.00;;;3.05;;
35961;SDS011;22044;48.298;10.008;2022-10-16T11:19:56;3.08;;;2.25;;
35961;SDS011;22044;48.298;10.008;2022-10-16T11:22:47;2.33;;;2.13;;
35961;SDS011;22044;48.298;10.008;2022-10-16T11:25:36;3.22;;;2.92;;
35961;SDS011;22044;48.298;10.008;2022-10-16T11:28:25;2.88;;;2.08;;
35961;SDS011;22044;48.298;10.008;2022-10-16T11:31:17;7.35;;;4.97;;
35961;SDS011;22044;48.298;10.008;2022-10-16T11:34:12;6.75;;;5.43;;
35961;SDS011;22044;48.298;10.008;2022-10-16T11:37:03;3.55;;;2.10;;
35961;SDS011;22044;48.298;10.008;2022-10-16T11:39:54;1.80;;;1.70;;
35961;SDS011;22044;48.298;10.008;2022-10-16T11:42:44;2.88;;;1.55;;
35961;SDS011;22044;48.298;10.008;2022-10-16T11:45:38;4.78;;;2.75;;
35961;SDS011;22044;48.298;10.008;2022-10-16T11:48:27;3.92;;;1.90;;
35961;SDS011;22044;48.298;10.008;2022-10-16T11:51:21;2.10;;;1.30;;
35961;SDS011;22044;48.298;10.008;2022-10-16T11:54:18;1.75;;;1.63;;
35961;SDS011;22044;48.298;10.008;2022-10-16T11:57:11;3.30;;;1.70;;
35961;SDS011;22044;48.298;10.008;2022-10-16T12:00:05;2.67;;;1.67;;
35961;SDS011;22044;48.298;10.008;2022-10-16T12:03:00;3.22;;;1.45;;
35961;SDS011;22044;48.298;10.008;2022-10-16T12:05:57;3.03;;;1.50;;
35961;SDS011;22044;48.298;10.008;2022-10-16T12:09:03;2.05;;;1.60;;
35961;SDS011;22044;48.298;10.008;2022-10-16T12:11:49;2.58;;;1.38;;
35961;SDS011;22044;48.298;10.008;2022-10-16T12:14:36;3.47;;;1.40;;
35961;SDS011;22044;48.298;10.008;2022-10-16T12:17:24;3.83;;;1.35;;
35961;SDS011;22044;48.298;10.008;2022-10-16T12:20:20;2.40;;;1.45;;
35961;SDS011;22044;48.298;10.008;2022-10-16T12:23:16;2.35;;;1.60;;
35961;SDS011;22044;48.298;10.008;2022-10-16T12:26:06;1.40;;;1.30;;
35961;SDS011;22044;48.298;10.008;2022-10-16T12:28:52;3.60;;;1.58;;
35961;SDS011;22044;48.298;10.008;2022-10-16T12:31:42;1.67;;;1.38;;
35961;SDS011;22044;48.298;10.008;2022-10-16T12:34:32;1.85;;;1.35;;
35961;SDS011;22044;48.298;10.008;2022-10-16T12:37:23;2.65;;;1.20;;
35961;SDS011;22044;48.298;10.008;2022-10-16T12:40:12;10.27;;;1.50;;
35961;SDS011;22044;48.298;10.008;2022-10-16T12:43:10;3.30;;;1.30;;
35961;SDS011;22044;48.298;10.008;2022-10-16T12:46:02;1.60;;;1.38;;
35961;SDS011;22044;48.298;10.008;2022-10-16T12:48:50;2.55;;;1.25;;
35961;SDS011;22044;48.298;10.008;2022-10-16T12:51:36;2.70;;;1.50;;
35961;SDS011;22044;48.298;10.008;2022-10-16T12:54:23;3.17;;;1.38;;
35961;SDS011;22044;48.298;10.008;2022-10-16T12:57:18;3.08;;;1.27;;
35961;SDS011;22044;48.298;10.008;2022-10-16T13:00:21;1.98;;;1.23;;
35961;SDS011;22044;48.298;10.008;2022-10-16T13:03:30;1.40;;;1.10;;
35961;SDS011;22044;48.298;10.008;2022-10-16T13:06:30;2.38;;;1.20;;
35961;SDS011;22044;48.298;10.008;2022-10-16T13:09:27;2.45;;;1.55;;
35961;SDS011;22044;48.298;10.008;2022-10-16T13:12:39;2.70;;;1.40;;
35961;SDS011;22044;48.298;10.008;2022-10-16T13:15:39;2.15;;;1.20;;
35961;SDS011;22044;48.298;10.008;2022-10-16T13:18:40;3.28;;;1.17;;
35961;SDS011;22044;48.298;10.008;2022-10-16T13:21:37;2.38;;;1.30;;
35961;SDS011;22044;48.298;10.008;2022-10-16T13:24:34;1.65;;;1.10;;
35961;SDS011;22044;48.298;10.008;2022-10-16T13:27:31;1.20;;;1.10;;
35961;SDS011;22044;48.298;10.008;2022-10-16T13:30:24;3.05;;;1.33;;
35961;SDS011;22044;48.298;10.008;2022-10-16T13:33:15;3.38;;;1.15;;
35961;SDS011;22044;48.298;10.008;2022-10-16T13:36:05;8.48;;;2.05;;
35961;SDS011;22044;48.298;10.008;2022-10-16T13:38:58;2.58;;;1.08;;
35961;SDS011;22044;48.298;10.008;2022-10-16T13:41:58;1.58;;;1.00;;
35961;SDS011;22044;48.298;10.008;2022-10-16T13:44:48;2.22;;;1.20;;
35961;SDS011;22044;48.298;10.008;2022-10-16T13:47:35;1.58;;;1.20;;
35961;SDS011;22044;48.298;10.008;2022-10-16T13:50:22;1.83;;;1.10;;
35961;SDS011;22044;48.298;10.008;2022-10-16T13:53:10;2.25;;;1.30;;
35961;SDS011;22044;48.298;10.008;2022-10-16T13:55:59;1.80;;;1.33;;
35961;SDS011;22044;48.298;10.008;2022-10-16T13:58:46;3.42;;;1.23;;
35961;SDS011;22044;48.298;10.008;2022-10-16T14:01:42;2.92;;;1.10;;
35961;SDS011;22044;48.298;10.008;2022-10-16T14:04:30;2.08;;;1.73;;
35961;SDS011;22044;48.298;10.008;2022-10-16T14:07:23;2.85;;;1.48;;
35961;SDS011;22044;48.298;10.008;2022-10-16T14:10:18;1.50;;;1.30;;
35961;SDS011;22044;48.298;10.008;2022-10-16T14:13:07;3.13;;;1.40;;
35961;SDS011;22044;48.298;10.008;2022-10-16T14:16:02;3.38;;;1.35;;
35961;SDS011;22044;48.298;10.008;2022-10-16T14:18:55;2.72;;;1.50;;
35961;SDS011;22044;48.298;10.008;2022-10-16T14:21:42;5.85;;;1.30;;
35961;SDS011;22044;48.298;10.008;2022-10-16T14:24:32;2.90;;;1.40;;
35961;SDS011;22044;48.298;10.008;2022-10-16T14:27:28;4.30;;;1.40;;
35961;SDS011;22044;48.298;10.008;2022-10-16T14:30:17;1.20;;;1.10;;
35961;SDS011;22044;48.298;10.008;2022-10-16T14:33:04;1.40;;;1.27;;
35961;SDS011;22044;48.298;10.008;2022-10-16T14:35:59;1.88;;;1.30;;
35961;SDS011;22044;48.298;10.008;2022-10-16T14:38:53;2.13;;;1.40;;
35961;SDS011;22044;48.298;10.008;2022-10-16T14:41:46;3.15;;;1.25;;
35961;SDS011;22044;48.298;10.008;2022-10-16T14:44:33;3.53;;;1.13;;
35961;SDS011;22044;48.298;10.008;2022-10-16T14:47:19;1.33;;;1.08;;
35961;SDS011;22044;48.298;10.008;2022-10-16T14:50:08;2.45;;;1.40;;
35961;SDS011;22044;48.298;10.008;2022-10-16T14:52:54;1.95;;;1.48;;
35961;SDS011;22044;48.298;10.008;2022-10-16T14:55:40;2.72;;;1.40;;
35961;SDS011;22044;48.298;10.008;2022-10-16T14:58:29;1.50;;;1.20;;
35961;SDS011;22044;48.298;10.008;2022-10-16T15:01:17;1.75;;;1.40;;
35961;SDS011;22044;48.298;10.008;2022-10-16T15:04:02;2.05;;;1.35;;
35961;SDS011;22044;48.298;10.008;2022-10-16T15:06:48;2.88;;;1.33;;
35961;SDS011;22044;48.298;10.008;2022-10-16T15:09:34;1.95;;;1.50;;
35961;SDS011;22044;48.298;10.008;2022-10-16T15:12:19;1.92;;;1.20;;
35961;SDS011;22044;48.298;10.008;2022-10-16T15:15:15;1.45;;;1.20;;
35961;SDS011;22044;48.298;10.008;2022-10-16T15:18:16;4.72;;;1.48;;
35961;SDS011;22044;48.298;10.008;2022-10-16T15:21:04;1.30;;;1.20;;
35961;SDS011;22044;48.298;10.008;2022-10-16T15:23:50;9.18;;;1.50;;
35961;SDS011;22044;48.298;10.008;2022-10-16T15:26:35;5.03;;;1.58;;
35961;SDS011;22044;48.298;10.008;2022-10-16T15:29:24;2.72;;;1.58;;
35961;SDS011;22044;48.298;10.008;2022-10-16T15:32:11;2.13;;;1.40;;
35961;SDS011;22044;48.298;10.008;2022-10-16T15:34:57;3.15;;;1.50;;
35961;SDS011;22044;48.298;10.008;2022-10-16T15:37:42;1.55;;;1.20;;
35961;SDS011;22044;48.298;10.008;2022-10-16T15:40:28;3.22;;;1.52;;
35961;SDS011;22044;48.298;10.008;2022-10-16T15:43:14;3.28;;;1.50;;
35961;SDS011;22044;48.298;10.008;2022-10-16T15:46:00;3.22;;;1.55;;
35961;SDS011;22044;48.298;10.008;2022-10-16T15:48:49;2.13;;;1.33;;
35961;SDS011;22044;48.298;10.008;2022-10-16T15:51:36;1.50;;;1.40;;
35961;SDS011;22044;48.298;10.008;2022-10-16T15:54:23;1.33;;;1.23;;
35961;SDS011;22044;48.298;10.008;2022-10-16T15:57:09;2.03;;;1.60;;
35961;SDS011;22044;48.298;10.008;2022-10-16T15:59:54;2.67;;;1.70;;
35961;SDS011;22044;48.298;10.008;2022-10-16T16:02:40;3.08;;;1.30;;
35961;SDS011;22044;48.298;10.008;2022-10-16T16:05:28;7.95;;;2.30;;
35961;SDS011;22044;48.298;10.008;2022-10-16T16:08:13;2.50;;;1.35;;
35961;SDS011;22044;48.298;10.008;2022-10-16T16:11:03;5.10;;;1.60;;
35961;SDS011;22044;48.298;10.008;2022-10-16T16:13:50;3.58;;;1.40;;
35961;SDS011;22044;48.298;10.008;2022-10-16T16:16:35;4.15;;;1.80;;
35961;SDS011;22044;48.298;10.008;2022-10-16T16:19:21;3.10;;;2.13;;
35961;SDS011;22044;48.298;10.008;2022-10-16T16:22:08;2.83;;;1.50;;
35961;SDS011;22044;48.298;10.008;2022-10-16T16:24:55;2.25;;;1.75;;
35961;SDS011;22044;48.298;10.008;2022-10-16T16:27:41;3.40;;;1.73;;
35961;SDS011;22044;48.298;10.008;2022-10-16T16:30:28;5.80;;;1.80;;
35961;SDS011;22044;48.298;10.008;2022-10-16T16:33:14;2.85;;;1.58;;
35961;SDS011;22044;48.298;10.008;2022-10-16T16:36:00;2.00;;;1.80;;
35961;SDS011;22044;48.298;10.008;2022-10-16T16:38:49;4.80;;;1.75;;
35961;SDS011;22044;48.298;10.008;2022-10-16T16:41:34;2.55;;;1.50;;
35961;SDS011;22044;48.298;10.008;2022-10-16T16:44:20;1.73;;;1.60;;
35961;SDS011;22044;48.298;10.008;2022-10-16T16:47:06;1.70;;;1.60;;